Terminal Aerodrome Forecast
Issued by NWS

Current Version | Previous Version | Text Only | Print | Product List | Glossary On
Versions: 1 2 3 4 5 6 7 8 9 10 11 12 13 14 15 16
000
FTUS41 KPBZ 242009 AAA
TAFAGC
TAF AMD
KAGC 242009Z 2420/2518 11008G18KT P6SM -RA SCT025 OVC035
      TEMPO 2420/2424 4SM -RA BKN025
     FM250400 07006KT P6SM VCSH OVC020
     FM250800 04003KT P6SM VCSH OVC015
     FM251100 03004KT P6SM VCSH OVC008=

USA.gov is the U.S. government's official web portal to all federal, state and local government web resources and services.